sensor_id;sensor_type;location;lat;lon;timestamp;temperature;humidity
148;DHT22;142;50.652;12.216;2022-10-19T00:01:03;14.80;70.00
148;DHT22;142;50.652;12.216;2022-10-19T00:03:30;14.80;70.00
148;DHT22;142;50.652;12.216;2022-10-19T00:05:59;14.80;69.90
148;DHT22;142;50.652;12.216;2022-10-19T00:08:27;14.70;69.90
148;DHT22;142;50.652;12.216;2022-10-19T00:10:54;14.70;69.60
148;DHT22;142;50.652;12.216;2022-10-19T00:13:21;14.60;69.40
148;DHT22;142;50.652;12.216;2022-10-19T00:15:48;14.70;69.50
148;DHT22;142;50.652;12.216;2022-10-19T00:18:15;14.60;69.40
148;DHT22;142;50.652;12.216;2022-10-19T00:20:42;14.60;69.40
148;DHT22;142;50.652;12.216;2022-10-19T00:23:11;14.40;69.20
148;DHT22;142;50.652;12.216;2022-10-19T00:25:40;14.40;68.90
148;DHT22;142;50.652;12.216;2022-10-19T00:28:07;14.40;68.90
148;DHT22;142;50.652;12.216;2022-10-19T00:30:36;14.30;68.80
148;DHT22;142;50.652;12.216;2022-10-19T00:33:03;14.10;68.10
148;DHT22;142;50.652;12.216;2022-10-19T00:35:30;14.10;68.20
148;DHT22;142;50.652;12.216;2022-10-19T00:37:57;14.10;68.10
148;DHT22;142;50.652;12.216;2022-10-19T00:40:26;14.10;68.00
148;DHT22;142;50.652;12.216;2022-10-19T00:42:53;14.10;67.80
148;DHT22;142;50.652;12.216;2022-10-19T00:45:21;14.10;67.70
148;DHT22;142;50.652;12.216;2022-10-19T00:47:49;14.10;67.90
148;DHT22;142;50.652;12.216;2022-10-19T00:50:17;14.20;68.00
148;DHT22;142;50.652;12.216;2022-10-19T00:52:44;14.20;67.90
148;DHT22;142;50.652;12.216;2022-10-19T00:55:12;14.20;67.50
148;DHT22;142;50.652;12.216;2022-10-19T00:57:41;14.20;67.50
148;DHT22;142;50.652;12.216;2022-10-19T01:00:09;14.20;67.70
148;DHT22;142;50.652;12.216;2022-10-19T01:02:36;14.20;67.60
148;DHT22;142;50.652;12.216;2022-10-19T01:05:03;14.20;67.40
148;DHT22;142;50.652;12.216;2022-10-19T01:07:30;14.10;67.40
148;DHT22;142;50.652;12.216;2022-10-19T01:09:58;14.10;67.30
148;DHT22;142;50.652;12.216;2022-10-19T01:12:56;14.10;67.40
148;DHT22;142;50.652;12.216;2022-10-19T01:15:37;14.10;67.30
148;DHT22;142;50.652;12.216;2022-10-19T01:18:17;14.10;67.40
148;DHT22;142;50.652;12.216;2022-10-19T01:21:07;14.20;67.50
148;DHT22;142;50.652;12.216;2022-10-19T01:30:06;14.20;67.10
148;DHT22;142;50.652;12.216;2022-10-19T01:35:38;14.10;67.00
148;DHT22;142;50.652;12.216;2022-10-19T01:38:18;14.10;67.10
148;DHT22;142;50.652;12.216;2022-10-19T01:40:54;14.10;67.10
148;DHT22;142;50.652;12.216;2022-10-19T01:43:30;14.10;67.10
148;DHT22;142;50.652;12.216;2022-10-19T01:46:06;14.10;67.00
148;DHT22;142;50.652;12.216;2022-10-19T01:48:39;14.10;67.00
148;DHT22;142;50.652;12.216;2022-10-19T01:51:10;14.10;67.00
148;DHT22;142;50.652;12.216;2022-10-19T01:53:50;14.00;66.90
148;DHT22;142;50.652;12.216;2022-10-19T01:56:22;13.90;66.20
148;DHT22;142;50.652;12.216;2022-10-19T01:58:50;13.80;66.30
148;DHT22;142;50.652;12.216;2022-10-19T02:01:22;13.70;66.30
148;DHT22;142;50.652;12.216;2022-10-19T02:03:51;13.60;66.50
148;DHT22;142;50.652;12.216;2022-10-19T02:06:20;13.50;66.70
148;DHT22;142;50.652;12.216;2022-10-19T02:08:50;13.50;66.70
148;DHT22;142;50.652;12.216;2022-10-19T02:11:19;13.50;66.90
148;DHT22;142;50.652;12.216;2022-10-19T02:13:50;13.50;67.00
148;DHT22;142;50.652;12.216;2022-10-19T02:16:24;13.50;67.20
148;DHT22;142;50.652;12.216;2022-10-19T02:18:54;13.40;66.90
148;DHT22;142;50.652;12.216;2022-10-19T02:21:21;13.40;67.10
148;DHT22;142;50.652;12.216;2022-10-19T02:23:49;13.40;67.30
148;DHT22;142;50.652;12.216;2022-10-19T02:26:16;13.40;67.30
148;DHT22;142;50.652;12.216;2022-10-19T02:28:43;13.50;67.40
148;DHT22;142;50.652;12.216;2022-10-19T02:31:11;13.50;67.30
148;DHT22;142;50.652;12.216;2022-10-19T02:33:40;13.40;67.10
148;DHT22;142;50.652;12.216;2022-10-19T02:36:07;13.40;66.90
148;DHT22;142;50.652;12.216;2022-10-19T02:38:34;13.30;67.20
148;DHT22;142;50.652;12.216;2022-10-19T02:41:06;13.40;67.40
148;DHT22;142;50.652;12.216;2022-10-19T02:43:37;13.40;67.30
148;DHT22;142;50.652;12.216;2022-10-19T02:46:07;13.40;67.40
148;DHT22;142;50.652;12.216;2022-10-19T02:48:37;13.40;67.50
148;DHT22;142;50.652;12.216;2022-10-19T02:51:26;13.40;67.40
148;DHT22;142;50.652;12.216;2022-10-19T02:53:52;13.40;67.30
148;DHT22;142;50.652;12.216;2022-10-19T02:56:19;13.30;67.30
148;DHT22;142;50.652;12.216;2022-10-19T02:58:47;13.30;67.30
148;DHT22;142;50.652;12.216;2022-10-19T03:01:14;13.30;67.40
148;DHT22;142;50.652;12.216;2022-10-19T03:03:41;13.30;67.40
148;DHT22;142;50.652;12.216;2022-10-19T03:06:10;13.30;67.50
148;DHT22;142;50.652;12.216;2022-10-19T03:08:37;13.30;67.70
148;DHT22;142;50.652;12.216;2022-10-19T03:11:05;13.40;67.70
148;DHT22;142;50.652;12.216;2022-10-19T03:13:32;13.40;67.70
148;DHT22;142;50.652;12.216;2022-10-19T03:16:06;13.40;67.40
148;DHT22;142;50.652;12.216;2022-10-19T03:18:33;13.30;67.50
148;DHT22;142;50.652;12.216;2022-10-19T03:21:01;13.30;67.40
148;DHT22;142;50.652;12.216;2022-10-19T03:23:30;13.30;67.30
148;DHT22;142;50.652;12.216;2022-10-19T03:25:57;13.30;67.20
148;DHT22;142;50.652;12.216;2022-10-19T03:28:24;13.20;66.90
148;DHT22;142;50.652;12.216;2022-10-19T03:30:51;13.10;66.90
148;DHT22;142;50.652;12.216;2022-10-19T03:33:18;13.00;67.20
148;DHT22;142;50.652;12.216;2022-10-19T03:35:46;13.00;67.10
148;DHT22;142;50.652;12.216;2022-10-19T03:38:13;12.80;66.90
148;DHT22;142;50.652;12.216;2022-10-19T03:40:41;12.70;67.30
148;DHT22;142;50.652;12.216;2022-10-19T03:43:09;12.70;67.50
148;DHT22;142;50.652;12.216;2022-10-19T03:45:36;12.60;67.70
148;DHT22;142;50.652;12.216;2022-10-19T03:48:03;12.50;67.80
148;DHT22;142;50.652;12.216;2022-10-19T03:50:30;12.50;68.00
148;DHT22;142;50.652;12.216;2022-10-19T03:52:57;12.50;68.20
148;DHT22;142;50.652;12.216;2022-10-19T03:55:24;12.50;68.50
148;DHT22;142;50.652;12.216;2022-10-19T03:57:53;12.50;68.80
148;DHT22;142;50.652;12.216;2022-10-19T04:00:20;12.50;68.70
148;DHT22;142;50.652;12.216;2022-10-19T04:02:47;12.50;68.70
148;DHT22;142;50.652;12.216;2022-10-19T04:05:14;12.50;68.80
148;DHT22;142;50.652;12.216;2022-10-19T04:07:42;12.50;68.90
148;DHT22;142;50.652;12.216;2022-10-19T04:10:09;12.40;68.80
148;DHT22;142;50.652;12.216;2022-10-19T04:12:36;12.40;68.90
148;DHT22;142;50.652;12.216;2022-10-19T04:15:06;12.40;68.90
148;DHT22;142;50.652;12.216;2022-10-19T04:17:33;12.40;69.00
148;DHT22;142;50.652;12.216;2022-10-19T04:19:59;12.40;68.90
148;DHT22;142;50.652;12.216;2022-10-19T04:22:26;12.40;69.00
148;DHT22;142;50.652;12.216;2022-10-19T04:24:53;12.40;69.10
148;DHT22;142;50.652;12.216;2022-10-19T04:27:20;12.50;69.10
148;DHT22;142;50.652;12.216;2022-10-19T04:29:47;12.50;69.10
148;DHT22;142;50.652;12.216;2022-10-19T04:32:16;12.40;69.10
148;DHT22;142;50.652;12.216;2022-10-19T04:34:43;12.50;69.20
148;DHT22;142;50.652;12.216;2022-10-19T04:37:10;12.30;68.90
148;DHT22;142;50.652;12.216;2022-10-19T04:39:37;12.30;69.10
148;DHT22;142;50.652;12.216;2022-10-19T04:42:05;12.20;69.20
148;DHT22;142;50.652;12.216;2022-10-19T04:44:32;12.20;69.50
148;DHT22;142;50.652;12.216;2022-10-19T04:46:59;12.20;69.40
148;DHT22;142;50.652;12.216;2022-10-19T04:49:28;12.20;69.50
148;DHT22;142;50.652;12.216;2022-10-19T04:51:55;12.20;69.60
148;DHT22;142;50.652;12.216;2022-10-19T04:54:22;12.30;69.70
148;DHT22;142;50.652;12.216;2022-10-19T04:56:48;12.20;69.60
148;DHT22;142;50.652;12.216;2022-10-19T04:59:18;12.30;69.60
148;DHT22;142;50.652;12.216;2022-10-19T05:01:46;12.30;69.60
148;DHT22;142;50.652;12.216;2022-10-19T05:04:12;12.30;69.60
148;DHT22;142;50.652;12.216;2022-10-19T05:06:41;12.40;69.70
148;DHT22;142;50.652;12.216;2022-10-19T05:09:08;12.40;69.70
148;DHT22;142;50.652;12.216;2022-10-19T05:11:35;12.20;68.90
148;DHT22;142;50.652;12.216;2022-10-19T05:14:02;12.20;69.10
148;DHT22;142;50.652;12.216;2022-10-19T05:16:29;12.30;69.40
148;DHT22;142;50.652;12.216;2022-10-19T05:18:56;12.30;69.40
148;DHT22;142;50.652;12.216;2022-10-19T05:21:25;12.30;69.30
148;DHT22;142;50.652;12.216;2022-10-19T05:23:55;12.30;69.50
148;DHT22;142;50.652;12.216;2022-10-19T05:26:26;12.30;69.40
148;DHT22;142;50.652;12.216;2022-10-19T05:28:56;12.30;69.40
148;DHT22;142;50.652;12.216;2022-10-19T05:31:27;12.40;69.40
148;DHT22;142;50.652;12.216;2022-10-19T05:33:55;12.40;69.30
148;DHT22;142;50.652;12.216;2022-10-19T05:36:23;12.40;69.30
148;DHT22;142;50.652;12.216;2022-10-19T05:38:54;12.40;69.30
148;DHT22;142;50.652;12.216;2022-10-19T05:41:23;12.40;69.10
148;DHT22;142;50.652;12.216;2022-10-19T05:43:52;12.30;69.00
148;DHT22;142;50.652;12.216;2022-10-19T05:46:19;12.30;69.20
148;DHT22;142;50.652;12.216;2022-10-19T05:48:47;12.40;69.30
148;DHT22;142;50.652;12.216;2022-10-19T05:51:17;12.40;69.40
148;DHT22;142;50.652;12.216;2022-10-19T05:53:44;12.40;69.30
148;DHT22;142;50.652;12.216;2022-10-19T05:56:18;12.40;69.40
148;DHT22;142;50.652;12.216;2022-10-19T05:58:45;12.40;69.20
148;DHT22;142;50.652;12.216;2022-10-19T06:01:13;12.40;68.90
148;DHT22;142;50.652;12.216;2022-10-19T06:03:43;12.30;68.90
148;DHT22;142;50.652;12.216;2022-10-19T06:06:11;12.30;69.00
148;DHT22;142;50.652;12.216;2022-10-19T06:08:39;12.30;69.10
148;DHT22;142;50.652;12.216;2022-10-19T06:11:07;12.30;69.20
148;DHT22;142;50.652;12.216;2022-10-19T06:13:36;12.30;69.20
148;DHT22;142;50.652;12.216;2022-10-19T06:16:05;12.30;69.10
148;DHT22;142;50.652;12.216;2022-10-19T06:18:34;12.30;69.10
148;DHT22;142;50.652;12.216;2022-10-19T06:21:02;12.30;69.20
148;DHT22;142;50.652;12.216;2022-10-19T06:23:29;12.40;69.40
148;DHT22;142;50.652;12.216;2022-10-19T06:25:57;12.40;69.30
148;DHT22;142;50.652;12.216;2022-10-19T06:28:24;12.40;69.10
148;DHT22;142;50.652;12.216;2022-10-19T06:30:53;12.40;68.90
148;DHT22;142;50.652;12.216;2022-10-19T06:33:20;12.50;68.90
148;DHT22;142;50.652;12.216;2022-10-19T06:35:47;12.50;68.80
148;DHT22;142;50.652;12.216;2022-10-19T06:38:14;12.50;68.40
148;DHT22;142;50.652;12.216;2022-10-19T06:40:41;12.50;67.80
148;DHT22;142;50.652;12.216;2022-10-19T06:43:08;12.50;67.50
148;DHT22;142;50.652;12.216;2022-10-19T06:45:36;12.60;67.40
148;DHT22;142;50.652;12.216;2022-10-19T06:48:06;12.60;66.60
148;DHT22;142;50.652;12.216;2022-10-19T06:50:33;12.60;66.30
148;DHT22;142;50.652;12.216;2022-10-19T06:53:00;12.60;66.40
148;DHT22;142;50.652;12.216;2022-10-19T06:55:27;12.60;66.00
148;DHT22;142;50.652;12.216;2022-10-19T06:57:54;12.60;65.90
148;DHT22;142;50.652;12.216;2022-10-19T07:00:23;12.60;66.20
148;DHT22;142;50.652;12.216;2022-10-19T07:02:49;12.60;65.80
148;DHT22;142;50.652;12.216;2022-10-19T07:05:18;12.60;66.00
148;DHT22;142;50.652;12.216;2022-10-19T07:07:45;12.70;66.00
148;DHT22;142;50.652;12.216;2022-10-19T07:10:12;12.80;66.00
148;DHT22;142;50.652;12.216;2022-10-19T07:12:39;12.80;65.80
148;DHT22;142;50.652;12.216;2022-10-19T07:15:07;12.90;65.30
148;DHT22;142;50.652;12.216;2022-10-19T07:17:34;12.80;63.70
148;DHT22;142;50.652;12.216;2022-10-19T07:20:02;12.80;62.80
148;DHT22;142;50.652;12.216;2022-10-19T07:22:31;12.90;62.70
148;DHT22;142;50.652;12.216;2022-10-19T07:24:58;12.90;61.80
148;DHT22;142;50.652;12.216;2022-10-19T07:27:25;13.00;61.80
148;DHT22;142;50.652;12.216;2022-10-19T07:29:52;13.00;60.60
148;DHT22;142;50.652;12.216;2022-10-19T07:32:19;13.00;60.60
148;DHT22;142;50.652;12.216;2022-10-19T07:34:46;13.00;60.90
148;DHT22;142;50.652;12.216;2022-10-19T07:37:13;12.90;60.10
148;DHT22;142;50.652;12.216;2022-10-19T07:39:42;12.90;60.60
148;DHT22;142;50.652;12.216;2022-10-19T07:42:09;13.00;60.60
148;DHT22;142;50.652;12.216;2022-10-19T07:44:36;13.10;60.00
148;DHT22;142;50.652;12.216;2022-10-19T07:47:03;13.10;59.60
148;DHT22;142;50.652;12.216;2022-10-19T07:49:30;13.20;59.10
148;DHT22;142;50.652;12.216;2022-10-19T07:51:57;13.30;58.80
148;DHT22;142;50.652;12.216;2022-10-19T07:54:25;13.30;57.70
148;DHT22;142;50.652;12.216;2022-10-19T07:56:54;13.30;57.40
148;DHT22;142;50.652;12.216;2022-10-19T07:59:21;13.40;57.00
148;DHT22;142;50.652;12.216;2022-10-19T08:01:48;13.40;56.70
148;DHT22;142;50.652;12.216;2022-10-19T08:04:16;13.50;56.80
148;DHT22;142;50.652;12.216;2022-10-19T08:06:43;13.60;56.60
148;DHT22;142;50.652;12.216;2022-10-19T08:09:10;13.60;55.60
148;DHT22;142;50.652;12.216;2022-10-19T08:11:37;13.60;54.90
148;DHT22;142;50.652;12.216;2022-10-19T08:14:06;13.70;54.20
148;DHT22;142;50.652;12.216;2022-10-19T08:16:34;13.90;54.00
148;DHT22;142;50.652;12.216;2022-10-19T08:19:04;13.90;52.40
148;DHT22;142;50.652;12.216;2022-10-19T08:21:34;13.90;51.90
148;DHT22;142;50.652;12.216;2022-10-19T08:24:02;13.90;51.70
148;DHT22;142;50.652;12.216;2022-10-19T08:26:31;13.90;51.80
148;DHT22;142;50.652;12.216;2022-10-19T08:28:59;13.90;52.00
148;DHT22;142;50.652;12.216;2022-10-19T08:31:28;14.00;51.40
148;DHT22;142;50.652;12.216;2022-10-19T08:33:55;14.00;51.60
148;DHT22;142;50.652;12.216;2022-10-19T08:36:22;14.00;51.80
148;DHT22;142;50.652;12.216;2022-10-19T08:38:50;14.00;51.70
148;DHT22;142;50.652;12.216;2022-10-19T08:41:22;14.00;51.60
148;DHT22;142;50.652;12.216;2022-10-19T08:44:02;14.00;51.70
148;DHT22;142;50.652;12.216;2022-10-19T08:46:40;14.10;51.70
148;DHT22;142;50.652;12.216;2022-10-19T08:49:11;14.10;51.40
148;DHT22;142;50.652;12.216;2022-10-19T08:51:42;14.10;51.60
148;DHT22;142;50.652;12.216;2022-10-19T08:54:15;14.00;51.60
148;DHT22;142;50.652;12.216;2022-10-19T08:56:47;14.10;51.80
148;DHT22;142;50.652;12.216;2022-10-19T08:59:24;14.00;51.60
148;DHT22;142;50.652;12.216;2022-10-19T09:01:56;14.00;51.90
148;DHT22;142;50.652;12.216;2022-10-19T09:04:27;14.10;52.10
148;DHT22;142;50.652;12.216;2022-10-19T09:07:06;14.30;52.30
148;DHT22;142;50.652;12.216;2022-10-19T09:09:43;14.30;52.30
148;DHT22;142;50.652;12.216;2022-10-19T09:12:17;14.40;51.60
148;DHT22;142;50.652;12.216;2022-10-19T09:14:52;14.30;50.80
148;DHT22;142;50.652;12.216;2022-10-19T09:17:22;14.30;50.50
148;DHT22;142;50.652;12.216;2022-10-19T09:19:50;14.30;50.30
148;DHT22;142;50.652;12.216;2022-10-19T09:22:20;14.30;50.40
148;DHT22;142;50.652;12.216;2022-10-19T09:24:50;14.50;50.50
148;DHT22;142;50.652;12.216;2022-10-19T09:27:20;14.50;50.30
148;DHT22;142;50.652;12.216;2022-10-19T09:29:52;14.40;50.30
148;DHT22;142;50.652;12.216;2022-10-19T09:32:24;14.50;50.20
148;DHT22;142;50.652;12.216;2022-10-19T09:34:55;14.50;49.30
148;DHT22;142;50.652;12.216;2022-10-19T09:37:23;14.60;49.20
148;DHT22;142;50.652;12.216;2022-10-19T09:39:51;14.70;49.20
148;DHT22;142;50.652;12.216;2022-10-19T09:42:22;14.80;49.00
148;DHT22;142;50.652;12.216;2022-10-19T09:44:51;14.80;49.10
148;DHT22;142;50.652;12.216;2022-10-19T09:47:44;14.80;49.20
148;DHT22;142;50.652;12.216;2022-10-19T09:50:17;14.70;48.90
148;DHT22;142;50.652;12.216;2022-10-19T09:52:45;14.40;48.90
148;DHT22;142;50.652;12.216;2022-10-19T09:55:26;14.30;49.40
148;DHT22;142;50.652;12.216;2022-10-19T09:58:01;14.20;48.80
148;DHT22;142;50.652;12.216;2022-10-19T10:00:37;14.20;48.30
148;DHT22;142;50.652;12.216;2022-10-19T10:03:22;14.30;55.50
148;DHT22;142;50.652;12.216;2022-10-19T10:05:50;14.40;62.00
148;DHT22;142;50.652;12.216;2022-10-19T10:08:18;14.40;64.60
148;DHT22;142;50.652;12.216;2022-10-19T10:10:51;14.50;65.80
148;DHT22;142;50.652;12.216;2022-10-19T10:13:21;14.70;66.60
148;DHT22;142;50.652;12.216;2022-10-19T10:15:54;14.80;66.50
148;DHT22;142;50.652;12.216;2022-10-19T10:18:24;14.90;66.80
148;DHT22;142;50.652;12.216;2022-10-19T10:20:58;14.90;66.90
148;DHT22;142;50.652;12.216;2022-10-19T10:23:27;14.90;68.20
148;DHT22;142;50.652;12.216;2022-10-19T10:25:56;14.80;68.20
148;DHT22;142;50.652;12.216;2022-10-19T10:28:25;14.90;68.30
148;DHT22;142;50.652;12.216;2022-10-19T10:30:59;14.90;68.60
148;DHT22;142;50.652;12.216;2022-10-19T10:33:30;14.90;68.30
148;DHT22;142;50.652;12.216;2022-10-19T10:36:02;14.80;68.50
148;DHT22;142;50.652;12.216;2022-10-19T10:38:32;14.80;68.80
148;DHT22;142;50.652;12.216;2022-10-19T10:41:04;14.90;68.70
148;DHT22;142;50.652;12.216;2022-10-19T10:43:35;15.00;68.40
148;DHT22;142;50.652;12.216;2022-10-19T10:46:06;15.00;69.30
148;DHT22;142;50.652;12.216;2022-10-19T10:48:39;14.90;68.90
148;DHT22;142;50.652;12.216;2022-10-19T10:51:19;14.90;69.00
148;DHT22;142;50.652;12.216;2022-10-19T10:53:47;14.90;69.20
148;DHT22;142;50.652;12.216;2022-10-19T10:56:23;14.90;69.10
148;DHT22;142;50.652;12.216;2022-10-19T10:58:55;14.80;69.70
148;DHT22;142;50.652;12.216;2022-10-19T11:01:27;14.80;80.70
148;DHT22;142;50.652;12.216;2022-10-19T11:03:59;14.90;80.80
148;DHT22;142;50.652;12.216;2022-10-19T11:06:27;15.00;81.00
148;DHT22;142;50.652;12.216;2022-10-19T11:09:06;15.20;80.90
148;DHT22;142;50.652;12.216;2022-10-19T11:11:35;15.20;80.70
148;DHT22;142;50.652;12.216;2022-10-19T11:14:24;15.10;80.80
148;DHT22;142;50.652;12.216;2022-10-19T11:16:55;15.10;80.80
148;DHT22;142;50.652;12.216;2022-10-19T11:19:27;15.00;80.60
148;DHT22;142;50.652;12.216;2022-10-19T11:22:00;15.00;80.30
148;DHT22;142;50.652;12.216;2022-10-19T11:24:34;15.10;85.10
148;DHT22;142;50.652;12.216;2022-10-19T11:27:13;15.20;85.40
148;DHT22;142;50.652;12.216;2022-10-19T11:29:56;15.20;85.00
148;DHT22;142;50.652;12.216;2022-10-19T11:32:28;15.20;84.50
148;DHT22;142;50.652;12.216;2022-10-19T11:35:07;15.20;84.50
148;DHT22;142;50.652;12.216;2022-10-19T11:37:45;15.10;84.60
148;DHT22;142;50.652;12.216;2022-10-19T11:40:22;15.00;84.60
148;DHT22;142;50.652;12.216;2022-10-19T11:42:55;15.00;84.90
148;DHT22;142;50.652;12.216;2022-10-19T11:45:34;15.00;85.10
148;DHT22;142;50.652;12.216;2022-10-19T11:51:10;15.20;84.90
148;DHT22;142;50.652;12.216;2022-10-19T11:53:47;15.40;85.10
148;DHT22;142;50.652;12.216;2022-10-19T11:56:25;15.40;83.60
148;DHT22;142;50.652;12.216;2022-10-19T11:58:58;15.30;83.70
148;DHT22;142;50.652;12.216;2022-10-19T12:01:41;15.30;84.20
148;DHT22;142;50.652;12.216;2022-10-19T12:04:37;15.20;84.20
148;DHT22;142;50.652;12.216;2022-10-19T12:07:20;15.10;84.10
148;DHT22;142;50.652;12.216;2022-10-19T12:09:56;15.00;84.60
148;DHT22;142;50.652;12.216;2022-10-19T12:12:28;14.80;84.80
148;DHT22;142;50.652;12.216;2022-10-19T12:15:04;14.60;84.70
148;DHT22;142;50.652;12.216;2022-10-19T12:17:40;14.70;84.70
148;DHT22;142;50.652;12.216;2022-10-19T12:20:16;14.90;84.60
148;DHT22;142;50.652;12.216;2022-10-19T12:22:48;15.10;84.40
148;DHT22;142;50.652;12.216;2022-10-19T12:25:16;15.30;83.40
148;DHT22;142;50.652;12.216;2022-10-19T12:27:45;15.30;83.30
148;DHT22;142;50.652;12.216;2022-10-19T12:30:17;15.40;83.90
148;DHT22;142;50.652;12.216;2022-10-19T12:33:02;15.50;83.90
148;DHT22;142;50.652;12.216;2022-10-19T12:35:43;15.40;84.40
148;DHT22;142;50.652;12.216;2022-10-19T12:38:18;15.30;84.70
148;DHT22;142;50.652;12.216;2022-10-19T12:40:52;15.30;84.70
148;DHT22;142;50.652;12.216;2022-10-19T12:43:27;15.50;84.40
148;DHT22;142;50.652;12.216;2022-10-19T12:46:05;15.50;84.30
148;DHT22;142;50.652;12.216;2022-10-19T12:48:35;15.50;84.80
148;DHT22;142;50.652;12.216;2022-10-19T12:51:09;15.50;84.90
148;DHT22;142;50.652;12.216;2022-10-19T12:53:40;15.40;84.50
148;DHT22;142;50.652;12.216;2022-10-19T12:56:12;15.30;84.10
148;DHT22;142;50.652;12.216;2022-10-19T12:58:49;15.20;84.00
148;DHT22;142;50.652;12.216;2022-10-19T13:01:20;15.00;84.20
148;DHT22;142;50.652;12.216;2022-10-19T13:03:51;15.00;84.80
148;DHT22;142;50.652;12.216;2022-10-19T13:06:30;15.10;84.70
148;DHT22;142;50.652;12.216;2022-10-19T13:09:02;15.00;84.30
148;DHT22;142;50.652;12.216;2022-10-19T13:11:30;14.60;85.20
148;DHT22;142;50.652;12.216;2022-10-19T13:13:59;14.60;85.20
148;DHT22;142;50.652;12.216;2022-10-19T13:16:40;14.60;84.90
148;DHT22;142;50.652;12.216;2022-10-19T13:19:18;14.60;84.90
148;DHT22;142;50.652;12.216;2022-10-19T13:25:20;14.80;84.70
148;DHT22;142;50.652;12.216;2022-10-19T13:27:48;15.10;85.00
148;DHT22;142;50.652;12.216;2022-10-19T13:33:48;15.10;85.90
148;DHT22;142;50.652;12.216;2022-10-19T13:36:17;15.10;85.60
148;DHT22;142;50.652;12.216;2022-10-19T13:38:47;15.10;85.70
148;DHT22;142;50.652;12.216;2022-10-19T13:41:45;15.00;85.70
148;DHT22;142;50.652;12.216;2022-10-19T13:44:22;15.00;85.80
148;DHT22;142;50.652;12.216;2022-10-19T13:52:59;14.70;85.60
148;DHT22;142;50.652;12.216;2022-10-19T13:55:53;14.70;85.40
148;DHT22;142;50.652;12.216;2022-10-19T13:58:51;14.60;85.60
148;DHT22;142;50.652;12.216;2022-10-19T14:01:28;14.60;85.60
148;DHT22;142;50.652;12.216;2022-10-19T14:04:11;14.60;85.90
148;DHT22;142;50.652;12.216;2022-10-19T14:06:43;14.70;86.00
148;DHT22;142;50.652;12.216;2022-10-19T14:12:07;14.80;86.10
148;DHT22;142;50.652;12.216;2022-10-19T14:14:53;14.70;86.10
148;DHT22;142;50.652;12.216;2022-10-19T14:17:21;14.60;86.20
148;DHT22;142;50.652;12.216;2022-10-19T14:19:51;14.60;86.10
148;DHT22;142;50.652;12.216;2022-10-19T14:22:25;14.60;86.20
148;DHT22;142;50.652;12.216;2022-10-19T14:24:59;14.70;86.10
148;DHT22;142;50.652;12.216;2022-10-19T14:27:27;14.80;86.10
148;DHT22;142;50.652;12.216;2022-10-19T14:29:57;14.70;86.30
148;DHT22;142;50.652;12.216;2022-10-19T14:32:26;14.80;86.20
148;DHT22;142;50.652;12.216;2022-10-19T14:34:56;14.70;86.20
148;DHT22;142;50.652;12.216;2022-10-19T14:37:26;14.70;86.00
148;DHT22;142;50.652;12.216;2022-10-19T14:40:02;14.70;85.80
148;DHT22;142;50.652;12.216;2022-10-19T14:42:38;14.70;86.00
148;DHT22;142;50.652;12.216;2022-10-19T14:45:12;14.60;86.30
148;DHT22;142;50.652;12.216;2022-10-19T14:47:54;14.50;86.30
148;DHT22;142;50.652;12.216;2022-10-19T14:50:25;14.40;86.40
148;DHT22;142;50.652;12.216;2022-10-19T14:52:57;14.40;86.50
148;DHT22;142;50.652;12.216;2022-10-19T14:55:32;14.40;86.50
148;DHT22;142;50.652;12.216;2022-10-19T14:58:02;14.30;86.50
148;DHT22;142;50.652;12.216;2022-10-19T15:00:33;14.20;86.50
148;DHT22;142;50.652;12.216;2022-10-19T15:03:03;14.10;86.60
148;DHT22;142;50.652;12.216;2022-10-19T15:05:34;14.10;86.60
148;DHT22;142;50.652;12.216;2022-10-19T15:08:06;14.10;86.60
148;DHT22;142;50.652;12.216;2022-10-19T15:10:40;14.10;86.50
148;DHT22;142;50.652;12.216;2022-10-19T15:13:19;14.10;86.50
148;DHT22;142;50.652;12.216;2022-10-19T15:15:51;14.20;86.50
148;DHT22;142;50.652;12.216;2022-10-19T15:18:21;14.20;86.40
148;DHT22;142;50.652;12.216;2022-10-19T15:21:00;14.20;86.60
148;DHT22;142;50.652;12.216;2022-10-19T15:23:35;14.10;86.80
148;DHT22;142;50.652;12.216;2022-10-19T15:26:13;14.00;86.50
148;DHT22;142;50.652;12.216;2022-10-19T15:28:41;14.00;86.40
148;DHT22;142;50.652;12.216;2022-10-19T15:31:15;14.00;86.60
148;DHT22;142;50.652;12.216;2022-10-19T15:33:46;13.90;86.50
148;DHT22;142;50.652;12.216;2022-10-19T15:36:14;13.90;86.60
148;DHT22;142;50.652;12.216;2022-10-19T15:38:45;13.80;86.80
148;DHT22;142;50.652;12.216;2022-10-19T15:41:18;13.70;86.70
148;DHT22;142;50.652;12.216;2022-10-19T15:43:48;13.70;86.80
148;DHT22;142;50.652;12.216;2022-10-19T15:46:25;13.60;86.70
148;DHT22;142;50.652;12.216;2022-10-19T15:48:57;13.50;86.50
148;DHT22;142;50.652;12.216;2022-10-19T15:51:42;13.50;86.40
148;DHT22;142;50.652;12.216;2022-10-19T15:54:10;13.50;86.30
148;DHT22;142;50.652;12.216;2022-10-19T15:56:40;13.40;86.20
148;DHT22;142;50.652;12.216;2022-10-19T15:59:12;13.30;86.00
148;DHT22;142;50.652;12.216;2022-10-19T16:01:42;13.30;85.80
148;DHT22;142;50.652;12.216;2022-10-19T16:04:10;13.20;85.50
148;DHT22;142;50.652;12.216;2022-10-19T16:06:39;13.20;85.20
148;DHT22;142;50.652;12.216;2022-10-19T16:09:10;13.10;85.30
148;DHT22;142;50.652;12.216;2022-10-19T16:11:39;13.00;85.00
148;DHT22;142;50.652;12.216;2022-10-19T16:14:06;13.00;84.40
148;DHT22;142;50.652;12.216;2022-10-19T16:16:33;13.00;83.70
148;DHT22;142;50.652;12.216;2022-10-19T16:19:02;13.00;83.40
148;DHT22;142;50.652;12.216;2022-10-19T16:21:32;13.00;83.40
148;DHT22;142;50.652;12.216;2022-10-19T16:24:00;12.80;83.40
148;DHT22;142;50.652;12.216;2022-10-19T16:26:27;12.80;82.90
148;DHT22;142;50.652;12.216;2022-10-19T16:28:56;12.70;83.10
148;DHT22;142;50.652;12.216;2022-10-19T16:31:24;12.70;81.70
148;DHT22;142;50.652;12.216;2022-10-19T16:33:51;12.60;80.70
148;DHT22;142;50.652;12.216;2022-10-19T16:36:19;12.60;80.30
148;DHT22;142;50.652;12.216;2022-10-19T16:38:46;12.50;80.10
148;DHT22;142;50.652;12.216;2022-10-19T16:41:14;12.50;79.10
148;DHT22;142;50.652;12.216;2022-10-19T16:43:41;12.40;77.10
148;DHT22;142;50.652;12.216;2022-10-19T16:46:09;12.30;75.20
148;DHT22;142;50.652;12.216;2022-10-19T16:48:36;12.20;72.20
148;DHT22;142;50.652;12.216;2022-10-19T16:51:29;12.00;69.50
148;DHT22;142;50.652;12.216;2022-10-19T16:53:58;11.90;67.70
148;DHT22;142;50.652;12.216;2022-10-19T16:56:27;11.70;64.50
148;DHT22;142;50.652;12.216;2022-10-19T16:58:56;11.50;62.10
148;DHT22;142;50.652;12.216;2022-10-19T17:01:24;11.40;61.10
148;DHT22;142;50.652;12.216;2022-10-19T17:03:52;11.30;60.90
148;DHT22;142;50.652;12.216;2022-10-19T17:06:20;11.30;60.40
148;DHT22;142;50.652;12.216;2022-10-19T17:08:48;11.30;60.20